Time;durP1;ratioP1;P1;durP2;ratioP2;P2;SDS_P1;SDS_P2;PMS_P1;PMS_P2;Temp;Humidity;BMP_temperature;BMP_pressure;BME280_temperature;BME280_humidity;BME280_pressure;Samples;Min_cycle;Max_cycle;Signal;HPM_P1;HPM_P2
2021/09/09 00:00:26;;;;;;;10.88;9.80;;;;;;;19.70;70.75;95444.00;5071000;28;20212;-85
2021/09/09 00:02:53;;;;;;;10.63;9.73;;;;;;;19.62;70.55;95449.63;5074648;28;20913;-85
2021/09/09 00:05:19;;;;;;;11.23;10.13;;;;;;;19.60;70.87;95446.47;5083972;28;20213;-81
2021/09/09 00:07:47;;;;;;;10.68;9.77;;;;;;;19.51;70.94;95446.03;5093889;28;20586;-82
2021/09/09 00:10:14;;;;;;;10.55;9.65;;;;;;;19.44;71.60;95445.34;5094970;28;20207;-84
2021/09/09 00:12:40;;;;;;;11.05;10.07;;;;;;;19.46;71.28;95432.88;5094976;28;20254;-85
2021/09/09 00:15:08;;;;;;;11.18;10.18;;;;;;;19.29;71.57;95438.06;5094408;28;20222;-82
2021/09/09 00:17:34;;;;;;;10.38;9.52;;;;;;;19.24;72.37;95448.41;5094336;28;20223;-85
2021/09/09 00:20:01;;;;;;;12.63;10.65;;;;;;;19.26;72.77;95450.78;5094087;28;20204;-82
2021/09/09 00:22:28;;;;;;;10.70;9.60;;;;;;;19.29;72.82;95450.31;5094302;28;20204;-83
2021/09/09 00:24:55;;;;;;;10.73;9.43;;;;;;;19.31;72.62;95446.44;5094040;28;20203;-86
2021/09/09 00:27:22;;;;;;;10.40;9.40;;;;;;;19.36;71.82;95444.97;5094845;28;20220;-82
2021/09/09 00:29:48;;;;;;;10.43;9.52;;;;;;;19.43;71.34;95449.03;5094845;28;20203;-82
2021/09/09 00:32:15;;;;;;;11.13;10.00;;;;;;;19.44;71.63;95452.41;5095063;28;20204;-83
2021/09/09 00:34:41;;;;;;;10.90;9.80;;;;;;;19.37;71.86;95452.56;5095151;28;20224;-82
2021/09/09 00:37:08;;;;;;;10.35;9.40;;;;;;;19.37;71.81;95446.56;5094229;28;20228;-86
2021/09/09 00:39:34;;;;;;;10.20;9.32;;;;;;;19.27;72.20;95450.56;5094266;28;20207;-83
2021/09/09 00:42:02;;;;;;;10.93;9.60;;;;;;;19.23;72.19;95456.50;5083356;28;20204;-84
2021/09/09 00:44:29;;;;;;;10.68;9.60;;;;;;;19.27;72.02;95450.56;5089270;28;20644;-83
2021/09/09 00:47:01;;;;;;;10.40;9.38;;;;;;;19.29;72.48;95453.72;5093469;28;20211;-83
2021/09/09 00:49:28;;;;;;;11.20;10.20;;;;;;;19.25;72.94;95451.81;5094443;28;20208;-82
2021/09/09 00:51:55;;;;;;;10.55;9.60;;;;;;;19.23;72.47;95441.63;5093338;28;20203;-82
2021/09/09 00:54:21;;;;;;;11.07;9.98;;;;;;;19.20;72.97;95447.31;5094157;28;20224;-85
2021/09/09 00:56:50;;;;;;;10.50;9.48;;;;;;;19.24;72.28;95458.09;5092632;28;20196;-82
2021/09/09 00:59:19;;;;;;;10.55;9.65;;;;;;;19.15;72.64;95449.03;5093674;28;20196;-85
2021/09/09 01:01:45;;;;;;;11.02;9.95;;;;;;;19.12;73.04;95452.09;5093252;28;20231;-85
2021/09/09 01:04:12;;;;;;;9.73;8.85;;;;;;;19.17;72.32;95450.38;5094113;28;20207;-82
2021/09/09 01:06:39;;;;;;;10.95;9.95;;;;;;;19.26;72.04;95443.75;5093891;28;20196;-85
2021/09/09 01:09:05;;;;;;;10.88;9.85;;;;;;;19.20;72.50;95444.69;5094313;28;20227;-85
2021/09/09 01:11:32;;;;;;;10.55;9.65;;;;;;;19.12;72.63;95439.84;5093624;28;20200;-82
2021/09/09 01:14:06;;;;;;;12.18;9.70;;;;;;;19.18;72.65;95451.16;5094085;28;20567;-81
2021/09/09 01:16:35;;;;;;;10.50;9.57;;;;;;;19.17;72.87;95439.94;5095097;28;20223;-83
2021/09/09 01:19:01;;;;;;;10.07;9.25;;;;;;;19.13;72.79;95448.47;5094687;28;20227;-85
2021/09/09 01:21:28;;;;;;;10.13;9.18;;;;;;;19.17;72.79;95441.75;5094133;28;20207;-85
2021/09/09 01:23:56;;;;;;;10.60;9.60;;;;;;;19.11;72.74;95443.47;5093416;28;20195;-85
2021/09/09 01:26:27;;;;;;;10.48;9.57;;;;;;;19.06;73.89;95450.41;5093530;28;20196;-86
2021/09/09 01:28:54;;;;;;;10.40;9.40;;;;;;;19.11;73.35;95446.06;5093083;28;20251;-82
2021/09/09 01:31:20;;;;;;;9.90;9.10;;;;;;;19.19;73.20;95443.09;5093148;28;20204;-83
2021/09/09 01:33:47;;;;;;;10.73;9.70;;;;;;;19.18;73.71;95438.91;5093534;28;20583;-82
2021/09/09 01:36:13;;;;;;;11.18;10.07;;;;;;;19.22;73.29;95447.88;5077725;28;20201;-82
2021/09/09 01:38:40;;;;;;;10.88;9.77;;;;;;;19.18;73.47;95451.97;5073122;28;20217;-85
2021/09/09 01:41:06;;;;;;;10.95;9.95;;;;;;;19.17;73.69;95453.00;5072793;28;20208;-84
2021/09/09 01:43:34;;;;;;;10.85;9.88;;;;;;;19.22;73.36;95441.84;5081571;28;20620;-85
2021/09/09 01:46:00;;;;;;;11.25;10.02;;;;;;;19.22;73.39;95450.47;5092507;28;20196;-84
2021/09/09 01:48:27;;;;;;;10.52;9.52;;;;;;;19.24;73.70;95453.63;5092563;28;20224;-85
2021/09/09 01:50:53;;;;;;;10.38;9.50;;;;;;;19.24;73.34;95453.63;5092801;28;20200;-85
2021/09/09 01:53:20;;;;;;;11.30;10.07;;;;;;;19.28;72.96;95449.53;5093210;28;20224;-82
2021/09/09 01:55:46;;;;;;;10.48;9.40;;;;;;;19.24;73.79;95452.84;5093577;28;20199;-82
2021/09/09 01:58:13;;;;;;;10.10;9.30;;;;;;;19.14;73.74;95456.06;5093148;28;20216;-82
2021/09/09 02:00:41;;;;;;;9.88;9.07;;;;;;;19.14;73.61;95453.44;5093959;28;20196;-82
2021/09/09 02:03:07;;;;;;;10.57;9.50;;;;;;;19.12;73.33;95457.31;5093061;28;20215;-85
2021/09/09 02:05:33;;;;;;;9.52;8.80;;;;;;;19.00;73.63;95451.34;5092086;28;20579;-83
2021/09/09 02:08:00;;;;;;;9.77;8.88;;;;;;;18.94;74.08;95459.06;5092636;28;20231;-82
2021/09/09 02:10:26;;;;;;;10.73;9.70;;;;;;;18.85;73.94;95451.84;5090425;28;20204;-84
2021/09/09 02:12:53;;;;;;;10.27;9.25;;;;;;;18.80;74.57;95456.97;5090189;28;20817;-82
2021/09/09 02:15:19;;;;;;;9.68;8.70;;;;;;;18.87;74.04;95457.59;5089399;28;20196;-82
2021/09/09 02:17:47;;;;;;;10.05;9.15;;;;;;;18.93;73.89;95452.25;5088809;28;20224;-85
2021/09/09 02:20:14;;;;;;;10.23;9.30;;;;;;;18.93;73.83;95454.88;5080610;28;20197;-81
2021/09/09 02:22:41;;;;;;;9.82;8.93;;;;;;;18.84;74.34;95461.50;5069441;28;20200;-82
2021/09/09 02:25:08;;;;;;;9.65;8.85;;;;;;;18.87;73.83;95461.00;5068544;28;20204;-83
2021/09/09 02:27:35;;;;;;;10.80;9.80;;;;;;;18.90;73.78;95457.16;5069164;28;20219;-85
2021/09/09 02:30:02;;;;;;;10.18;9.27;;;;;;;18.85;73.77;95457.06;5069446;28;20571;-83
2021/09/09 02:32:28;;;;;;;9.95;9.05;;;;;;;18.88;73.72;95457.38;5069375;28;20585;-82
2021/09/09 02:34:56;;;;;;;10.27;9.35;;;;;;;18.86;74.08;95456.81;5069179;28;20228;-85
2021/09/09 02:37:22;;;;;;;10.52;9.52;;;;;;;18.91;73.53;95456.13;5069372;28;20879;-85
2021/09/09 02:39:49;;;;;;;9.85;9.05;;;;;;;18.88;73.19;95453.97;5069369;28;20204;-83
2021/09/09 02:42:15;;;;;;;9.60;8.70;;;;;;;18.87;73.08;95458.41;5069426;28;20196;-84
2021/09/09 02:44:42;;;;;;;9.90;9.00;;;;;;;18.84;73.27;95445.84;5087067;28;20714;-85
2021/09/09 02:47:08;;;;;;;10.32;9.35;;;;;;;18.85;73.51;95451.84;5089162;28;20746;-83
2021/09/09 02:49:35;;;;;;;9.77;8.88;;;;;;;18.87;73.41;95447.97;5089043;28;20211;-85
2021/09/09 02:52:03;;;;;;;10.40;9.50;;;;;;;18.81;73.64;95442.91;5089262;28;20204;-85
2021/09/09 02:54:30;;;;;;;9.25;8.40;;;;;;;18.79;73.87;95448.34;5089211;28;20694;-84
2021/09/09 02:56:56;;;;;;;9.63;8.82;;;;;;;18.72;73.89;95441.66;5094106;28;20196;-82
2021/09/09 02:59:23;;;;;;;9.93;8.60;;;;;;;18.74;74.00;95447.44;5096801;28;20188;-82
2021/09/09 03:01:49;;;;;;;9.55;8.68;;;;;;;18.70;73.74;95454.13;5097011;28;20204;-83
2021/09/09 03:04:16;;;;;;;9.43;8.70;;;;;;;18.66;74.10;95440.00;5096896;28;20193;-83
2021/09/09 03:06:42;;;;;;;9.45;8.50;;;;;;;18.71;73.59;95448.69;5098147;28;20687;-82
2021/09/09 03:09:10;;;;;;;9.30;8.45;;;;;;;18.80;73.32;95444.72;5097620;28;20220;-86
2021/09/09 03:11:36;;;;;;;10.77;8.40;;;;;;;18.83;72.82;95436.44;5097680;28;20204;-83
2021/09/09 03:14:03;;;;;;;11.52;9.20;;;;;;;18.79;72.99;95437.13;5096451;28;20227;-86
2021/09/09 03:16:29;;;;;;;9.95;8.82;;;;;;;18.67;73.29;95431.91;5096264;28;20204;-85
2021/09/09 03:18:55;;;;;;;9.27;8.48;;;;;;;18.71;73.09;95435.66;5095818;28;20220;-83
2021/09/09 03:21:22;;;;;;;9.50;8.50;;;;;;;18.63;73.01;95431.59;5095052;28;20207;-83
2021/09/09 03:23:48;;;;;;;9.30;8.43;;;;;;;18.53;74.06;95428.75;5096263;28;20203;-86
2021/09/09 03:26:16;;;;;;;8.85;8.00;;;;;;;18.53;74.24;95427.94;5095391;28;20207;-83
2021/09/09 03:28:43;;;;;;;9.27;8.48;;;;;;;18.49;74.24;95432.03;5096314;28;20219;-82
2021/09/09 03:31:09;;;;;;;9.65;8.75;;;;;;;18.53;74.05;95433.16;5095928;28;20200;-85
2021/09/09 03:33:36;;;;;;;8.95;8.15;;;;;;;18.45;74.43;95425.72;5094761;28;20337;-83
2021/09/09 03:36:02;;;;;;;9.68;8.88;;;;;;;18.43;74.73;95431.16;5093974;28;20200;-82
2021/09/09 03:38:29;;;;;;;9.50;8.70;;;;;;;18.36;74.75;95435.69;5099290;28;20211;-83
2021/09/09 03:40:55;;;;;;;9.07;8.32;;;;;;;18.38;75.31;95432.84;5100724;28;20204;-82
2021/09/09 03:43:23;;;;;;;9.10;8.30;;;;;;;18.49;74.26;95425.00;5092301;28;20220;-86
2021/09/09 03:45:49;;;;;;;8.93;8.23;;;;;;;18.37;74.80;95418.22;5078792;28;20204;-83
2021/09/09 03:48:16;;;;;;;8.70;8.00;;;;;;;18.31;75.18;95427.75;5079755;28;20216;-86
2021/09/09 03:50:42;;;;;;;9.55;8.65;;;;;;;18.40;74.67;95423.78;5086171;28;20192;-85
2021/09/09 03:53:09;;;;;;;9.32;8.50;;;;;;;18.45;74.62;95416.06;5086494;28;20201;-82
2021/09/09 03:55:35;;;;;;;9.15;8.32;;;;;;;18.37;75.38;95420.84;5080635;28;20217;-86
2021/09/09 03:58:02;;;;;;;8.43;7.63;;;;;;;18.35;75.66;95423.66;5097875;28;20375;-84
2021/09/09 04:00:29;;;;;;;9.57;8.43;;;;;;;18.37;75.12;95420.84;5079655;28;20243;-82
2021/09/09 04:02:57;;;;;;;8.60;7.75;;;;;;;18.40;75.23;95421.19;5079409;28;20213;-83
2021/09/09 04:05:24;;;;;;;8.02;7.20;;;;;;;18.50;74.98;95428.41;5079178;28;20197;-82
2021/09/09 04:07:50;;;;;;;8.73;7.93;;;;;;;18.37;74.81;95432.06;5079193;28;20236;-85
2021/09/09 04:10:16;;;;;;;8.80;7.97;;;;;;;18.37;75.38;95424.22;5080068;28;20201;-82
2021/09/09 04:12:43;;;;;;;8.88;7.80;;;;;;;18.37;75.20;95423.44;5095754;28;20204;-84
2021/09/09 04:15:11;;;;;;;8.07;7.45;;;;;;;18.49;74.94;95424.22;5098818;28;20216;-85
2021/09/09 04:17:38;;;;;;;8.52;7.82;;;;;;;18.55;74.31;95424.09;5099867;28;20641;-83
2021/09/09 04:20:06;;;;;;;8.57;7.82;;;;;;;18.44;75.14;95430.13;5099149;28;20204;-82
2021/09/09 04:22:32;;;;;;;8.32;7.63;;;;;;;18.47;74.61;95429.66;5099293;28;20203;-84
2021/09/09 04:25:00;;;;;;;9.25;8.45;;;;;;;18.36;74.82;95433.06;5097339;28;20192;-83
2021/09/09 04:27:26;;;;;;;8.23;7.43;;;;;;;18.41;75.34;95427.19;5089708;28;20216;-82
2021/09/09 04:29:53;;;;;;;8.70;7.90;;;;;;;18.45;74.72;95433.53;5084476;28;20200;-82
2021/09/09 04:32:20;;;;;;;8.30;7.60;;;;;;;18.48;74.52;95436.44;5088216;28;20193;-82
2021/09/09 04:34:48;;;;;;;8.75;7.85;;;;;;;18.51;74.35;95430.00;5080012;28;20799;-83
2021/09/09 04:37:14;;;;;;;8.35;7.65;;;;;;;18.47;74.00;95445.28;5079484;28;20295;-83
2021/09/09 04:39:41;;;;;;;9.00;8.20;;;;;;;18.47;73.91;95440.06;5078230;28;20610;-85
2021/09/09 04:42:07;;;;;;;9.10;8.20;;;;;;;18.47;73.91;95441.91;5095191;28;20555;-86
2021/09/09 04:44:34;;;;;;;8.32;7.60;;;;;;;18.36;74.58;95443.50;5084981;28;20232;-85
2021/09/09 04:47:01;;;;;;;8.98;8.07;;;;;;;18.37;74.55;95446.91;5088851;28;20277;-85
2021/09/09 04:49:27;;;;;;;8.82;7.93;;;;;;;18.29;75.12;95450.63;5092012;28;20227;-83
2021/09/09 04:51:55;;;;;;;9.23;8.30;;;;;;;18.35;74.44;95452.34;5090071;28;20197;-86
2021/09/09 04:54:21;;;;;;;9.60;8.18;;;;;;;18.40;74.60;95449.84;5080447;28;20274;-82
2021/09/09 04:56:48;;;;;;;8.88;8.07;;;;;;;18.36;74.11;95443.50;5084795;28;20258;-82
2021/09/09 04:59:14;;;;;;;8.25;7.43;;;;;;;18.30;74.08;95441.78;5080039;28;20282;-84
2021/09/09 05:01:41;;;;;;;10.63;7.60;;;;;;;18.09;75.06;95437.94;5079415;28;20220;-85
2021/09/09 05:04:07;;;;;;;8.25;7.47;;;;;;;18.06;75.65;95435.03;5078833;28;20219;-83
2021/09/09 05:06:34;;;;;;;9.77;8.07;;;;;;;18.08;75.64;95444.22;5085918;28;20196;-84
2021/09/09 05:09:02;;;;;;;8.90;7.90;;;;;;;18.15;75.25;95444.88;5085685;28;20219;-85
2021/09/09 05:11:28;;;;;;;7.97;7.28;;;;;;;18.31;74.81;95446.00;5078888;28;20201;-85
2021/09/09 05:13:54;;;;;;;11.18;7.82;;;;;;;18.30;74.76;95444.41;5080148;28;20295;-82
2021/09/09 05:16:21;;;;;;;10.55;8.60;;;;;;;18.39;74.37;95444.88;5080583;28;20200;-82
2021/09/09 05:18:47;;;;;;;8.80;7.90;;;;;;;18.45;74.11;95444.75;5094855;28;20216;-83
2021/09/09 05:21:14;;;;;;;8.43;7.57;;;;;;;18.50;74.18;95438.81;5097483;28;20196;-85
2021/09/09 05:23:40;;;;;;;8.88;7.55;;;;;;;18.44;74.91;95447.59;5097674;28;20203;-83
2021/09/09 05:26:08;;;;;;;8.82;8.02;;;;;;;18.49;74.66;95443.25;5097770;28;20192;-84
2021/09/09 05:28:34;;;;;;;8.73;8.02;;;;;;;18.47;75.13;95444.53;5085081;28;20212;-85
2021/09/09 05:31:01;;;;;;;9.88;8.13;;;;;;;18.53;74.85;95443.59;5095455;28;20201;-83
2021/09/09 05:33:27;;;;;;;8.52;7.65;;;;;;;18.53;74.73;95449.59;5080288;28;20201;-82
2021/09/09 05:35:54;;;;;;;9.05;8.20;;;;;;;18.66;74.34;95438.19;5078021;28;20219;-82
2021/09/09 05:38:21;;;;;;;8.70;7.95;;;;;;;18.72;73.79;95442.44;5077237;28;20224;-82
2021/09/09 05:40:49;;;;;;;10.13;8.30;;;;;;;18.79;73.49;95442.34;5088070;28;20211;-82
2021/09/09 05:43:17;;;;;;;10.02;8.13;;;;;;;18.87;73.08;95444.56;5097025;28;20228;-84
2021/09/09 05:45:44;;;;;;;12.60;8.30;;;;;;;18.93;72.67;95441.03;5081896;28;20196;-84
2021/09/09 05:48:10;;;;;;;11.38;8.05;;;;;;;19.00;72.44;95446.13;5076587;28;20642;-85
2021/09/09 05:50:36;;;;;;;9.38;8.38;;;;;;;19.02;71.86;95442.28;5076668;28;20207;-85
2021/09/09 05:53:03;;;;;;;10.43;8.60;;;;;;;19.09;71.50;95452.56;5081231;28;20204;-85
2021/09/09 05:55:29;;;;;;;10.10;9.05;;;;;;;19.14;71.27;95455.25;5080657;28;20235;-85
2021/09/09 05:57:56;;;;;;;15.02;9.15;;;;;;;19.20;70.84;95452.53;5077041;28;20228;-85
2021/09/09 06:00:24;;;;;;;9.60;8.55;;;;;;;19.29;70.57;95447.72;5078339;28;20200;-83
2021/09/09 06:02:51;;;;;;;10.25;9.25;;;;;;;19.37;70.17;95451.78;5097162;28;20287;-82
2021/09/09 06:05:18;;;;;;;9.10;8.30;;;;;;;19.42;69.98;95450.06;5095662;28;20199;-84
2021/09/09 06:07:45;;;;;;;10.63;8.98;;;;;;;19.43;69.98;95451.63;5096626;28;20259;-82
2021/09/09 06:10:12;;;;;;;10.63;8.85;;;;;;;19.48;69.92;95454.31;5094709;28;20211;-83
2021/09/09 06:12:39;;;;;;;13.43;7.78;;;;;;;19.49;69.11;95460.31;5092110;28;20207;-81
2021/09/09 06:15:07;;;;;;;10.57;8.70;;;;;;;19.48;68.20;95451.69;5077222;28;21755;-81
2021/09/09 06:17:34;;;;;;;9.25;8.35;;;;;;;19.47;69.01;95454.53;5080318;28;20274;-83
2021/09/09 06:20:01;;;;;;;8.02;7.22;;;;;;;19.51;68.73;95450.47;5079512;28;20200;-82
2021/09/09 06:22:27;;;;;;;9.18;8.27;;;;;;;19.53;68.72;95453.66;5094650;28;20196;-83
2021/09/09 06:24:54;;;;;;;10.65;8.23;;;;;;;19.64;68.51;95458.78;5089729;28;20193;-84
2021/09/09 06:27:20;;;;;;;9.80;7.88;;;;;;;19.78;67.27;95458.50;5075680;28;20599;-82
2021/09/09 06:29:47;;;;;;;10.70;7.60;;;;;;;19.99;67.38;95455.19;5094461;28;20195;-83
2021/09/09 06:32:13;;;;;;;10.32;7.78;;;;;;;20.04;65.62;95457.84;5091185;28;20204;-81
2021/09/09 06:34:41;;;;;;;15.10;7.38;;;;;;;19.98;65.56;95453.59;5075597;28;20224;-81
2021/09/09 06:37:09;;;;;;;9.40;8.38;;;;;;;20.07;65.28;95453.97;5095580;28;20195;-83
2021/09/09 06:39:36;;;;;;;8.82;7.93;;;;;;;20.17;65.46;95449.72;5093775;28;20599;-82
2021/09/09 06:42:03;;;;;;;8.77;7.70;;;;;;;20.29;65.92;95460.06;5090899;28;20226;-82
2021/09/09 06:44:29;;;;;;;8.85;7.63;;;;;;;20.37;65.55;95454.47;5082908;28;20201;-85
2021/09/09 06:46:56;;;;;;;7.97;7.18;;;;;;;20.61;65.02;95457.63;5074150;28;20208;-85
2021/09/09 06:49:22;;;;;;;8.20;7.40;;;;;;;20.68;63.60;95460.88;5073179;28;20284;-85
2021/09/09 06:51:50;;;;;;;14.05;7.68;;;;;;;20.78;64.58;95455.78;5073210;28;20197;-83
2021/09/09 06:54:17;;;;;;;13.20;7.10;;;;;;;20.90;62.00;95466.13;5073191;28;20223;-82
2021/09/09 06:56:44;;;;;;;7.22;6.45;;;;;;;21.14;61.80;95470.09;5074886;28;20825;-83
2021/09/09 06:59:10;;;;;;;7.60;6.60;;;;;;;21.33;61.40;95465.34;5074840;28;20685;-82
2021/09/09 07:01:37;;;;;;;7.28;6.50;;;;;;;21.52;61.21;95468.41;5074069;28;20270;-85
2021/09/09 07:04:04;;;;;;;8.35;6.53;;;;;;;21.70;59.93;95473.28;5074582;28;20208;-83
2021/09/09 07:06:30;;;;;;;9.15;5.95;;;;;;;21.85;59.48;95467.38;5075156;28;20205;-83
2021/09/09 07:08:58;;;;;;;6.47;5.32;;;;;;;21.99;57.37;95469.31;5075825;28;20239;-83
2021/09/09 07:11:24;;;;;;;6.30;5.75;;;;;;;22.22;57.49;95472.69;5075259;28;20618;-84
2021/09/09 07:13:51;;;;;;;6.78;6.07;;;;;;;22.38;56.66;95475.13;5074495;28;20437;-82
2021/09/09 07:16:17;;;;;;;7.50;5.65;;;;;;;22.47;56.50;95472.06;5073214;28;20229;-82
2021/09/09 07:18:43;;;;;;;8.00;5.72;;;;;;;22.60;57.18;95475.00;5073673;28;20217;-85
2021/09/09 07:21:10;;;;;;;6.63;6.03;;;;;;;22.71;56.08;95473.22;5073317;28;20204;-85
2021/09/09 07:23:36;;;;;;;6.32;5.60;;;;;;;22.84;55.04;95478.06;5074917;28;20215;-86
2021/09/09 07:26:04;;;;;;;8.65;5.68;;;;;;;23.03;55.74;95471.31;5074658;28;20197;-82
2021/09/09 07:28:30;;;;;;;9.05;6.38;;;;;;;23.22;54.45;95473.47;5075011;28;20684;-82
2021/09/09 07:30:57;;;;;;;11.55;5.47;;;;;;;23.37;53.82;95470.88;5075872;28;20222;-83
2021/09/09 07:33:24;;;;;;;6.72;5.63;;;;;;;23.50;53.73;95473.00;5074480;28;20251;-83
2021/09/09 07:35:51;;;;;;;6.22;5.63;;;;;;;23.67;52.96;95478.03;5073675;28;20221;-82
2021/09/09 07:38:17;;;;;;;5.80;5.30;;;;;;;23.71;52.13;95471.22;5074270;28;20221;-83
2021/09/09 07:40:44;;;;;;;6.90;5.80;;;;;;;23.83;51.85;95469.16;5074744;28;20203;-83
2021/09/09 07:43:11;;;;;;;7.00;5.57;;;;;;;24.02;51.86;95475.47;5090141;28;20217;-83
2021/09/09 07:45:38;;;;;;;7.72;5.68;;;;;;;24.22;51.24;95482.56;5074505;28;20196;-83
2021/09/09 07:48:05;;;;;;;10.40;6.22;;;;;;;24.38;51.37;95483.34;5074763;28;20216;-83
2021/09/09 07:50:31;;;;;;;6.90;5.88;;;;;;;24.49;49.52;95468.31;5085675;28;20193;-83
2021/09/09 07:52:58;;;;;;;6.03;5.45;;;;;;;24.71;49.56;95479.34;5094704;28;20200;-82
2021/09/09 07:55:25;;;;;;;5.95;5.35;;;;;;;24.86;48.03;95476.63;5092465;28;20220;-82
2021/09/09 07:57:52;;;;;;;12.07;5.72;;;;;;;25.02;48.54;95486.09;5092665;28;20230;-83
2021/09/09 08:00:19;;;;;;;6.85;6.05;;;;;;;25.16;47.53;95488.97;5092553;28;20220;-82
2021/09/09 08:02:46;;;;;;;9.07;5.55;;;;;;;25.35;48.44;95481.22;5092292;28;20234;-84
2021/09/09 08:05:15;;;;;;;5.30;4.90;;;;;;;25.45;46.88;95481.94;5091096;28;20204;-82
2021/09/09 08:07:43;;;;;;;5.80;5.25;;;;;;;25.50;46.36;95480.34;5091160;28;20598;-82
2021/09/09 08:10:13;;;;;;;12.82;5.28;;;;;;;25.61;46.94;95480.00;5094389;28;20196;-82
2021/09/09 08:12:39;;;;;;;7.03;5.15;;;;;;;25.74;46.99;95484.72;5077786;28;20205;-82
2021/09/09 08:15:07;;;;;;;5.93;5.25;;;;;;;25.89;46.47;95491.72;5070881;28;20649;-81
2021/09/09 08:17:35;;;;;;;5.97;4.78;;;;;;;26.05;46.45;95487.09;5076828;28;20295;-82
2021/09/09 08:20:02;;;;;;;5.55;5.05;;;;;;;26.19;46.35;95490.69;5091996;28;20200;-84
2021/09/09 08:22:28;;;;;;;7.35;5.18;;;;;;;26.31;45.42;95496.44;5094703;28;20211;-83
2021/09/09 08:24:55;;;;;;;8.63;5.57;;;;;;;26.52;46.53;95504.16;5095577;28;20204;-83
2021/09/09 08:27:22;;;;;;;8.88;4.93;;;;;;;26.59;44.86;95502.75;5097616;28;20216;-84
2021/09/09 08:29:49;;;;;;;5.93;5.40;;;;;;;26.63;43.84;95495.06;5094497;28;20196;-82
2021/09/09 08:32:15;;;;;;;5.82;5.32;;;;;;;26.75;44.06;95498.09;5081370;28;20605;-83
2021/09/09 08:34:43;;;;;;;7.85;5.32;;;;;;;26.89;43.15;95506.94;5091600;28;20192;-82
2021/09/09 08:37:09;;;;;;;7.57;5.32;;;;;;;27.04;43.31;95504.16;5078624;28;20251;-82
2021/09/09 08:39:36;;;;;;;5.85;5.28;;;;;;;27.12;43.02;95513.34;5086366;28;20203;-82
2021/09/09 08:42:03;;;;;;;7.68;5.30;;;;;;;27.15;42.79;95502.19;5093767;28;20207;-83
2021/09/09 08:44:30;;;;;;;5.75;5.25;;;;;;;27.30;42.75;95503.88;5101747;28;20207;-82
2021/09/09 08:46:59;;;;;;;6.30;5.18;;;;;;;27.37;43.09;95512.22;5102075;28;20224;-83
2021/09/09 08:49:26;;;;;;;5.97;5.38;;;;;;;27.55;43.05;95508.81;5104610;28;20221;-84
2021/09/09 08:51:55;;;;;;;9.80;5.57;;;;;;;27.53;41.71;95513.59;5097439;28;20218;-82
2021/09/09 08:54:22;;;;;;;6.30;5.70;;;;;;;27.68;42.24;95504.72;5084255;28;20208;-82
2021/09/09 08:56:48;;;;;;;6.20;5.53;;;;;;;27.73;41.98;95510.69;5082975;28;20220;-82
2021/09/09 08:59:15;;;;;;;8.50;5.50;;;;;;;27.72;41.46;95518.91;5082745;28;20217;-82
2021/09/09 09:02:00;;;;;;;5.80;5.30;;;;;;;27.76;41.42;95507.47;5082377;28;20234;-82
2021/09/09 09:04:26;;;;;;;5.78;5.28;;;;;;;27.72;41.77;95509.13;5080792;28;20201;-84
2021/09/09 09:06:56;;;;;;;6.05;5.00;;;;;;;27.74;41.95;95509.63;5097848;28;20249;-83
2021/09/09 09:09:24;;;;;;;5.18;4.78;;;;;;;27.83;41.75;95515.06;5104032;28;20245;-81
2021/09/09 09:11:52;;;;;;;7.05;4.88;;;;;;;27.95;40.98;95517.25;5104165;28;20226;-82
2021/09/09 09:14:43;;;;;;;5.60;4.75;;;;;;;27.99;39.80;95512.97;5101181;28;20192;-83
2021/09/09 09:17:10;;;;;;;5.68;4.72;;;;;;;28.01;39.51;95513.47;5083232;28;20231;-83
2021/09/09 09:19:40;;;;;;;5.88;5.30;;;;;;;28.01;39.94;95521.41;5085372;28;20208;-82
2021/09/09 09:22:10;;;;;;;5.50;5.00;;;;;;;28.06;39.88;95516.84;5084111;28;20229;-83
2021/09/09 09:24:44;;;;;;;5.00;4.60;;;;;;;28.05;39.71;95515.25;5083084;28;20264;-84
2021/09/09 09:27:12;;;;;;;5.53;5.03;;;;;;;28.25;40.04;95510.75;5093331;28;20203;-83
2021/09/09 09:29:40;;;;;;;6.50;4.85;;;;;;;28.39;40.33;95512.34;5085627;28;20225;-84
2021/09/09 09:32:12;;;;;;;5.68;5.00;;;;;;;28.42;39.77;95513.63;5082815;28;20298;-83
2021/09/09 09:34:39;;;;;;;5.20;4.80;;;;;;;28.45;39.82;95507.75;5080345;28;20224;-82
2021/09/09 09:37:06;;;;;;;5.45;4.95;;;;;;;28.62;39.21;95515.16;5095006;28;20213;-84
2021/09/09 09:39:35;;;;;;;5.20;4.80;;;;;;;28.75;39.12;95511.72;5086773;28;20271;-83
2021/09/09 09:42:05;;;;;;;5.80;5.18;;;;;;;28.88;39.86;95511.75;5088753;28;20649;-82
2021/09/09 09:44:33;;;;;;;7.38;5.00;;;;;;;28.91;40.45;95510.38;5099870;28;20699;-83
2021/09/09 09:47:11;;;;;;;7.35;5.00;;;;;;;28.85;39.75;95509.72;5098542;28;20219;-83
2021/09/09 09:49:42;;;;;;;5.43;4.93;;;;;;;28.83;39.50;95509.22;5094375;28;20256;-84
2021/09/09 09:52:09;;;;;;;7.15;5.22;;;;;;;28.91;40.77;95510.38;5079205;28;20201;-86
2021/09/09 09:54:37;;;;;;;6.63;5.32;;;;;;;28.97;40.63;95511.09;5077482;28;20203;-85
2021/09/09 09:57:03;;;;;;;5.35;4.85;;;;;;;29.02;40.41;95509.13;5079167;28;20274;-83
2021/09/09 09:59:30;;;;;;;5.63;5.22;;;;;;;29.01;40.45;95512.88;5100139;28;20207;-85
2021/09/09 10:01:56;;;;;;;5.80;5.20;;;;;;;28.88;40.14;95510.97;5100374;28;20590;-83
2021/09/09 10:04:23;;;;;;;5.32;4.82;;;;;;;28.64;40.48;95520.94;5099301;28;20204;-86
2021/09/09 10:06:52;;;;;;;5.75;5.25;;;;;;;28.62;40.76;95508.00;5100146;28;20671;-83
2021/09/09 10:09:19;;;;;;;5.18;4.78;;;;;;;28.68;41.35;95516.63;5098585;28;20224;-85
2021/09/09 10:11:49;;;;;;;5.70;5.10;;;;;;;28.72;43.06;95507.00;5100274;28;20195;-83
2021/09/09 10:14:22;;;;;;;5.78;5.18;;;;;;;28.84;42.90;95515.31;5091409;28;20464;-86
2021/09/09 10:16:55;;;;;;;5.35;4.95;;;;;;;28.77;41.65;95512.22;5080521;28;20216;-83
2021/09/09 10:19:27;;;;;;;6.05;5.55;;;;;;;28.63;41.65;95511.44;5093469;28;20212;-86
2021/09/09 10:22:05;;;;;;;5.55;5.00;;;;;;;28.65;42.03;95503.97;5099383;28;20234;-86
2021/09/09 10:24:34;;;;;;;5.90;5.32;;;;;;;28.63;42.22;95509.56;5098701;28;20221;-86
2021/09/09 10:27:24;;;;;;;5.95;5.45;;;;;;;28.67;41.44;95502.56;5090222;28;20205;-82
2021/09/09 10:29:53;;;;;;;6.60;5.78;;;;;;;28.65;41.48;95510.06;5093002;28;20193;-86
2021/09/09 10:32:57;;;;;;;5.40;5.00;;;;;;;28.56;42.34;95501.19;5081471;28;20207;-86
2021/09/09 10:35:44;;;;;;;6.95;5.35;;;;;;;28.50;42.04;95502.34;5020277;28;20194;-85
2021/09/09 10:38:34;;;;;;;6.70;5.30;;;;;;;28.48;42.57;95496.59;5072980;28;20217;-82
2021/09/09 10:41:03;;;;;;;5.70;5.20;;;;;;;28.43;42.52;95494.81;5081466;28;20721;-85
2021/09/09 10:43:50;;;;;;;6.00;5.50;;;;;;;28.36;43.88;95501.56;5100836;28;20663;-83
2021/09/09 10:46:18;;;;;;;5.55;5.15;;;;;;;28.36;43.35;95489.09;5090057;28;20207;-84
2021/09/09 10:48:46;;;;;;;7.80;5.45;;;;;;;28.37;44.45;95489.88;5087789;28;20224;-84
2021/09/09 10:51:20;;;;;;;5.78;5.28;;;;;;;28.41;42.81;95488.22;5096081;28;20231;-83
2021/09/09 10:53:54;;;;;;;8.15;5.55;;;;;;;28.52;43.26;95494.91;5096979;28;20196;-83
2021/09/09 10:56:23;;;;;;;5.13;4.72;;;;;;;28.52;42.39;95486.97;5083095;28;20213;-83
2021/09/09 10:59:09;;;;;;;5.43;4.85;;;;;;;28.51;42.21;95486.16;5082852;28;20216;-82
2021/09/09 11:01:35;;;;;;;6.30;5.72;;;;;;;28.51;43.26;95488.03;5082152;28;20261;-82
2021/09/09 11:04:02;;;;;;;5.63;5.13;;;;;;;28.41;42.56;95477.63;5082456;28;20208;-84
2021/09/09 11:06:30;;;;;;;6.00;5.38;;;;;;;28.47;42.07;95473.81;5093799;28;20650;-83
2021/09/09 11:08:58;;;;;;;5.68;4.78;;;;;;;28.49;42.16;95477.72;5103168;28;20242;-83
2021/09/09 11:11:27;;;;;;;5.88;5.30;;;;;;;28.44;42.17;95485.00;5102848;28;20726;-83
2021/09/09 11:14:05;;;;;;;8.52;5.05;;;;;;;28.37;42.71;95480.06;5103192;28;20222;-82
2021/09/09 11:16:34;;;;;;;5.88;5.28;;;;;;;27.93;42.24;95474.41;5100684;28;20328;-83
2021/09/09 11:19:01;;;;;;;7.38;5.10;;;;;;;27.81;43.03;95478.31;5078393;28;20324;-83
2021/09/09 11:21:31;;;;;;;5.57;4.95;;;;;;;27.86;43.45;95474.81;5074895;28;20211;-82
2021/09/09 11:23:59;;;;;;;6.95;4.90;;;;;;;27.96;43.49;95479.91;5085790;28;20193;-87
2021/09/09 11:26:26;;;;;;;6.20;5.07;;;;;;;28.17;43.38;95477.75;5075449;28;20193;-86
2021/09/09 11:28:53;;;;;;;5.72;4.85;;;;;;;28.30;43.77;95477.00;5075253;28;20227;-86
2021/09/09 11:31:25;;;;;;;5.25;4.75;;;;;;;28.11;41.47;95478.88;5076177;28;20201;-85
2021/09/09 11:33:53;;;;;;;6.00;4.90;;;;;;;27.95;42.30;95472.28;5075289;28;20222;-85